sensor_id;sensor_type;location;lat;lon;timestamp;temperature;humidity
20208;DHT22;10263;48.716;8.760;2023-03-01T00:01:18;-2.40;99.90
20208;DHT22;10263;48.716;8.760;2023-03-01T00:03:45;-2.40;99.90
20208;DHT22;10263;48.716;8.760;2023-03-01T00:06:14;-2.40;99.90
20208;DHT22;10263;48.716;8.760;2023-03-01T00:08:41;-2.40;99.90
20208;DHT22;10263;48.716;8.760;2023-03-01T00:11:12;-2.40;99.90
20208;DHT22;10263;48.716;8.760;2023-03-01T00:13:40;-2.60;99.90
20208;DHT22;10263;48.716;8.760;2023-03-01T00:16:08;-2.50;99.90
20208;DHT22;10263;48.716;8.760;2023-03-01T00:18:35;-2.60;99.90
20208;DHT22;10263;48.716;8.760;2023-03-01T00:21:03;-2.60;99.90
20208;DHT22;10263;48.716;8.760;2023-03-01T00:23:33;-2.70;99.90
20208;DHT22;10263;48.716;8.760;2023-03-01T00:26:00;-2.70;99.90
20208;DHT22;10263;48.716;8.760;2023-03-01T00:28:27;-2.70;99.90
20208;DHT22;10263;48.716;8.760;2023-03-01T00:30:54;-2.70;99.90
20208;DHT22;10263;48.716;8.760;2023-03-01T00:33:20;-2.70;99.90
20208;DHT22;10263;48.716;8.760;2023-03-01T00:35:47;-2.70;99.90
20208;DHT22;10263;48.716;8.760;2023-03-01T00:38:14;-2.80;99.90
20208;DHT22;10263;48.716;8.760;2023-03-01T00:40:42;-2.80;99.90
20208;DHT22;10263;48.716;8.760;2023-03-01T00:43:09;-2.90;99.90
20208;DHT22;10263;48.716;8.760;2023-03-01T00:45:36;-2.90;99.90
20208;DHT22;10263;48.716;8.760;2023-03-01T00:48:03;-3.00;99.90
20208;DHT22;10263;48.716;8.760;2023-03-01T00:50:30;-3.00;99.90
20208;DHT22;10263;48.716;8.760;2023-03-01T00:52:57;-3.00;99.90
20208;DHT22;10263;48.716;8.760;2023-03-01T00:55:24;-3.00;99.90
20208;DHT22;10263;48.716;8.760;2023-03-01T00:57:53;-3.00;99.90
20208;DHT22;10263;48.716;8.760;2023-03-01T01:00:20;-3.00;99.90
20208;DHT22;10263;48.716;8.760;2023-03-01T01:02:48;-3.00;99.90
20208;DHT22;10263;48.716;8.760;2023-03-01T01:05:15;-3.00;99.90
20208;DHT22;10263;48.716;8.760;2023-03-01T01:07:47;-3.00;99.90
20208;DHT22;10263;48.716;8.760;2023-03-01T01:10:14;-3.10;99.90
20208;DHT22;10263;48.716;8.760;2023-03-01T01:12:43;-3.00;99.90
20208;DHT22;10263;48.716;8.760;2023-03-01T01:15:12;-3.10;99.90
20208;DHT22;10263;48.716;8.760;2023-03-01T01:17:42;-3.10;99.90
20208;DHT22;10263;48.716;8.760;2023-03-01T01:20:10;-3.10;99.90
20208;DHT22;10263;48.716;8.760;2023-03-01T01:22:37;-3.10;99.90
20208;DHT22;10263;48.716;8.760;2023-03-01T01:25:04;-3.00;99.90
20208;DHT22;10263;48.716;8.760;2023-03-01T01:29:58;-3.10;99.90
20208;DHT22;10263;48.716;8.760;2023-03-01T01:32:26;-3.10;99.90
20208;DHT22;10263;48.716;8.760;2023-03-01T01:34:53;-3.20;99.90
20208;DHT22;10263;48.716;8.760;2023-03-01T01:37:20;-3.10;99.90
20208;DHT22;10263;48.716;8.760;2023-03-01T01:42:16;-3.20;99.90
20208;DHT22;10263;48.716;8.760;2023-03-01T01:44:46;-3.20;99.90
20208;DHT22;10263;48.716;8.760;2023-03-01T01:47:15;-3.20;99.90
20208;DHT22;10263;48.716;8.760;2023-03-01T01:49:48;-3.20;99.90
20208;DHT22;10263;48.716;8.760;2023-03-01T01:52:18;-3.20;99.90
20208;DHT22;10263;48.716;8.760;2023-03-01T01:54:50;-3.20;99.90
20208;DHT22;10263;48.716;8.760;2023-03-01T01:57:20;-3.20;99.90
20208;DHT22;10263;48.716;8.760;2023-03-01T01:59:51;-3.10;99.90
20208;DHT22;10263;48.716;8.760;2023-03-01T02:02:18;-3.20;99.90
20208;DHT22;10263;48.716;8.760;2023-03-01T02:04:48;-3.10;99.90
20208;DHT22;10263;48.716;8.760;2023-03-01T02:07:19;-3.20;99.90
20208;DHT22;10263;48.716;8.760;2023-03-01T02:09:50;-3.20;99.90
20208;DHT22;10263;48.716;8.760;2023-03-01T02:12:20;-3.20;99.90
20208;DHT22;10263;48.716;8.760;2023-03-01T02:14:48;-3.20;99.90
20208;DHT22;10263;48.716;8.760;2023-03-01T02:17:17;-3.20;99.90
20208;DHT22;10263;48.716;8.760;2023-03-01T02:19:57;-3.20;99.90
20208;DHT22;10263;48.716;8.760;2023-03-01T02:22:27;-3.20;99.90
20208;DHT22;10263;48.716;8.760;2023-03-01T02:25:03;-3.20;99.90
20208;DHT22;10263;48.716;8.760;2023-03-01T02:27:40;-3.20;99.90
20208;DHT22;10263;48.716;8.760;2023-03-01T02:30:11;-3.30;99.90
20208;DHT22;10263;48.716;8.760;2023-03-01T02:32:39;-3.30;99.90
20208;DHT22;10263;48.716;8.760;2023-03-01T02:35:09;-3.30;99.90
20208;DHT22;10263;48.716;8.760;2023-03-01T02:37:38;-3.40;99.90
20208;DHT22;10263;48.716;8.760;2023-03-01T02:40:09;-3.40;99.90
20208;DHT22;10263;48.716;8.760;2023-03-01T02:42:43;-2.80;99.90
20208;DHT22;10263;48.716;8.760;2023-03-01T02:45:15;-3.40;99.90
20208;DHT22;10263;48.716;8.760;2023-03-01T02:50:18;-3.40;99.90
20208;DHT22;10263;48.716;8.760;2023-03-01T02:52:55;-4.50;99.90
20208;DHT22;10263;48.716;8.760;2023-03-01T03:00:23;-3.50;99.90
20208;DHT22;10263;48.716;8.760;2023-03-01T03:02:52;-3.40;99.90
20208;DHT22;10263;48.716;8.760;2023-03-01T03:05:24;-2.70;99.90
20208;DHT22;10263;48.716;8.760;2023-03-01T03:07:55;-3.50;99.90
20208;DHT22;10263;48.716;8.760;2023-03-01T03:10:25;-3.40;99.90
20208;DHT22;10263;48.716;8.760;2023-03-01T03:12:53;-3.40;99.90
20208;DHT22;10263;48.716;8.760;2023-03-01T03:15:22;-3.40;99.90
20208;DHT22;10263;48.716;8.760;2023-03-01T03:17:52;-3.30;99.90
20208;DHT22;10263;48.716;8.760;2023-03-01T03:20:20;-3.30;99.90
20208;DHT22;10263;48.716;8.760;2023-03-01T03:22:50;-3.30;99.90
20208;DHT22;10263;48.716;8.760;2023-03-01T03:25:18;-3.30;99.90
20208;DHT22;10263;48.716;8.760;2023-03-01T03:27:46;-3.20;99.90
20208;DHT22;10263;48.716;8.760;2023-03-01T03:30:16;-3.20;99.90
20208;DHT22;10263;48.716;8.760;2023-03-01T03:32:47;-3.20;99.90
20208;DHT22;10263;48.716;8.760;2023-03-01T03:35:18;-3.20;99.90
20208;DHT22;10263;48.716;8.760;2023-03-01T03:37:45;-3.10;99.90
20208;DHT22;10263;48.716;8.760;2023-03-01T03:40:34;-3.10;99.90
20208;DHT22;10263;48.716;8.760;2023-03-01T03:45:28;-3.10;99.90
20208;DHT22;10263;48.716;8.760;2023-03-01T03:47:56;-3.00;99.90
20208;DHT22;10263;48.716;8.760;2023-03-01T03:52:50;-3.00;99.90
20208;DHT22;10263;48.716;8.760;2023-03-01T03:55:18;-3.00;99.90
20208;DHT22;10263;48.716;8.760;2023-03-01T03:57:47;-2.90;99.90
20208;DHT22;10263;48.716;8.760;2023-03-01T04:00:18;-2.90;99.90
20208;DHT22;10263;48.716;8.760;2023-03-01T04:02:47;-2.90;99.90
20208;DHT22;10263;48.716;8.760;2023-03-01T04:05:17;-2.90;99.90
20208;DHT22;10263;48.716;8.760;2023-03-01T04:07:44;-3.00;99.90
20208;DHT22;10263;48.716;8.760;2023-03-01T04:10:13;-2.80;99.90
20208;DHT22;10263;48.716;8.760;2023-03-01T04:15:11;-2.80;99.90
20208;DHT22;10263;48.716;8.760;2023-03-01T04:17:39;-2.80;99.90
20208;DHT22;10263;48.716;8.760;2023-03-01T04:20:08;-2.80;99.90
20208;DHT22;10263;48.716;8.760;2023-03-01T04:22:38;-2.70;99.90
20208;DHT22;10263;48.716;8.760;2023-03-01T04:25:06;-2.70;99.90
20208;DHT22;10263;48.716;8.760;2023-03-01T04:27:33;-2.70;99.90
20208;DHT22;10263;48.716;8.760;2023-03-01T04:30:00;-2.70;99.90
20208;DHT22;10263;48.716;8.760;2023-03-01T04:32:27;-2.70;99.90
20208;DHT22;10263;48.716;8.760;2023-03-01T04:37:21;-2.60;99.90
20208;DHT22;10263;48.716;8.760;2023-03-01T04:39:50;-2.60;99.90
20208;DHT22;10263;48.716;8.760;2023-03-01T04:42:18;-2.60;99.90
20208;DHT22;10263;48.716;8.760;2023-03-01T04:44:45;-3.10;99.90
20208;DHT22;10263;48.716;8.760;2023-03-01T04:47:12;-2.50;99.90
20208;DHT22;10263;48.716;8.760;2023-03-01T04:52:06;-2.50;99.90
20208;DHT22;10263;48.716;8.760;2023-03-01T04:54:35;-2.20;99.90
20208;DHT22;10263;48.716;8.760;2023-03-01T04:57:03;-2.50;99.90
20208;DHT22;10263;48.716;8.760;2023-03-01T04:59:30;-2.50;99.90
20208;DHT22;10263;48.716;8.760;2023-03-01T05:01:57;-2.50;99.90
20208;DHT22;10263;48.716;8.760;2023-03-01T05:04:26;-2.40;99.90
20208;DHT22;10263;48.716;8.760;2023-03-01T05:11:48;-2.40;99.90
20208;DHT22;10263;48.716;8.760;2023-03-01T05:14:18;-2.40;99.90
20208;DHT22;10263;48.716;8.760;2023-03-01T05:19:12;-2.40;99.90
20208;DHT22;10263;48.716;8.760;2023-03-01T05:21:41;-2.40;99.90
20208;DHT22;10263;48.716;8.760;2023-03-01T05:24:22;-2.30;99.90
20208;DHT22;10263;48.716;8.760;2023-03-01T05:29:19;-2.30;99.90
20208;DHT22;10263;48.716;8.760;2023-03-01T05:31:51;-2.30;99.90
20208;DHT22;10263;48.716;8.760;2023-03-01T05:34:18;-2.30;99.90
20208;DHT22;10263;48.716;8.760;2023-03-01T05:36:48;-2.30;99.90
20208;DHT22;10263;48.716;8.760;2023-03-01T05:39:16;-2.20;99.90
20208;DHT22;10263;48.716;8.760;2023-03-01T05:41:43;-2.20;99.90
20208;DHT22;10263;48.716;8.760;2023-03-01T05:44:10;-2.20;99.90
20208;DHT22;10263;48.716;8.760;2023-03-01T05:46:39;-2.20;99.90
20208;DHT22;10263;48.716;8.760;2023-03-01T05:49:06;-2.20;99.90
20208;DHT22;10263;48.716;8.760;2023-03-01T05:54:00;-2.10;99.90
20208;DHT22;10263;48.716;8.760;2023-03-01T05:58:54;-2.10;99.90
20208;DHT22;10263;48.716;8.760;2023-03-01T06:01:21;-2.10;99.90
20208;DHT22;10263;48.716;8.760;2023-03-01T06:03:49;-2.10;99.90
20208;DHT22;10263;48.716;8.760;2023-03-01T06:11:10;-2.00;99.90
20208;DHT22;10263;48.716;8.760;2023-03-01T06:13:37;-2.00;99.90
20208;DHT22;10263;48.716;8.760;2023-03-01T06:16:05;-2.00;99.90
20208;DHT22;10263;48.716;8.760;2023-03-01T06:21:01;-2.00;99.90
20208;DHT22;10263;48.716;8.760;2023-03-01T06:30:51;-1.90;99.90
20208;DHT22;10263;48.716;8.760;2023-03-01T06:33:18;-1.90;99.90
20208;DHT22;10263;48.716;8.760;2023-03-01T06:38:14;-1.80;99.90
20208;DHT22;10263;48.716;8.760;2023-03-01T06:43:09;-1.80;99.90
20208;DHT22;10263;48.716;8.760;2023-03-01T06:45:37;-1.80;99.90
20208;DHT22;10263;48.716;8.760;2023-03-01T06:48:05;-1.80;99.90
20208;DHT22;10263;48.716;8.760;2023-03-01T06:50:35;-1.70;99.90
20208;DHT22;10263;48.716;8.760;2023-03-01T06:53:03;-1.70;99.90
20208;DHT22;10263;48.716;8.760;2023-03-01T06:55:31;0.70;99.90
20208;DHT22;10263;48.716;8.760;2023-03-01T06:58:00;-1.60;99.90
20208;DHT22;10263;48.716;8.760;2023-03-01T07:00:28;-1.60;99.90
20208;DHT22;10263;48.716;8.760;2023-03-01T07:05:22;-5.30;99.90
20208;DHT22;10263;48.716;8.760;2023-03-01T07:07:48;-1.40;99.90
20208;DHT22;10263;48.716;8.760;2023-03-01T07:10:16;-1.40;99.90
20208;DHT22;10263;48.716;8.760;2023-03-01T07:12:44;-1.40;99.90
20208;DHT22;10263;48.716;8.760;2023-03-01T07:15:11;-1.30;99.90
20208;DHT22;10263;48.716;8.760;2023-03-01T07:20:11;-1.20;99.90
20208;DHT22;10263;48.716;8.760;2023-03-01T07:22:39;-1.10;99.90
20208;DHT22;10263;48.716;8.760;2023-03-01T07:25:07;-1.10;99.90
20208;DHT22;10263;48.716;8.760;2023-03-01T07:27:34;-1.00;99.90
20208;DHT22;10263;48.716;8.760;2023-03-01T07:30:03;-0.90;99.90
20208;DHT22;10263;48.716;8.760;2023-03-01T07:32:31;-0.90;99.90
20208;DHT22;10263;48.716;8.760;2023-03-01T07:34:58;-0.70;99.90
20208;DHT22;10263;48.716;8.760;2023-03-01T07:37:25;-0.70;99.90
20208;DHT22;10263;48.716;8.760;2023-03-01T07:39:52;-0.60;99.90
20208;DHT22;10263;48.716;8.760;2023-03-01T07:42:18;-0.60;99.90
20208;DHT22;10263;48.716;8.760;2023-03-01T07:44:45;-0.50;99.90
20208;DHT22;10263;48.716;8.760;2023-03-01T07:47:13;-0.50;99.90
20208;DHT22;10263;48.716;8.760;2023-03-01T07:49:40;-0.50;99.90
20208;DHT22;10263;48.716;8.760;2023-03-01T07:52:09;-0.50;99.90
20208;DHT22;10263;48.716;8.760;2023-03-01T07:54:36;-0.50;99.90
20208;DHT22;10263;48.716;8.760;2023-03-01T07:57:03;-0.50;99.90
20208;DHT22;10263;48.716;8.760;2023-03-01T07:59:30;-0.50;99.90
20208;DHT22;10263;48.716;8.760;2023-03-01T08:01:58;-0.50;99.90
20208;DHT22;10263;48.716;8.760;2023-03-01T08:04:26;-0.40;99.90
20208;DHT22;10263;48.716;8.760;2023-03-01T08:06:53;-0.40;99.90
20208;DHT22;10263;48.716;8.760;2023-03-01T08:09:20;-0.40;99.90
20208;DHT22;10263;48.716;8.760;2023-03-01T08:11:46;-0.40;99.90
20208;DHT22;10263;48.716;8.760;2023-03-01T08:14:13;-0.40;99.90
20208;DHT22;10263;48.716;8.760;2023-03-01T08:16:40;-0.30;99.90
20208;DHT22;10263;48.716;8.760;2023-03-01T08:19:08;-0.20;99.90
20208;DHT22;10263;48.716;8.760;2023-03-01T08:21:37;-0.20;99.90
20208;DHT22;10263;48.716;8.760;2023-03-01T08:24:05;-0.10;99.90
20208;DHT22;10263;48.716;8.760;2023-03-01T08:26:32;-0.10;99.90
20208;DHT22;10263;48.716;8.760;2023-03-01T08:29:00;-0.10;99.90
20208;DHT22;10263;48.716;8.760;2023-03-01T08:31:32;0.00;99.90
20208;DHT22;10263;48.716;8.760;2023-03-01T08:34:02;0.10;99.90
20208;DHT22;10263;48.716;8.760;2023-03-01T08:36:32;0.10;99.90
20208;DHT22;10263;48.716;8.760;2023-03-01T08:39:00;0.20;99.90
20208;DHT22;10263;48.716;8.760;2023-03-01T08:41:27;0.20;99.90
20208;DHT22;10263;48.716;8.760;2023-03-01T08:43:54;0.40;99.90
20208;DHT22;10263;48.716;8.760;2023-03-01T08:46:24;0.40;99.90
20208;DHT22;10263;48.716;8.760;2023-03-01T08:48:51;0.50;99.90
20208;DHT22;10263;48.716;8.760;2023-03-01T08:51:19;0.50;99.90
20208;DHT22;10263;48.716;8.760;2023-03-01T08:53:46;0.60;99.90
20208;DHT22;10263;48.716;8.760;2023-03-01T08:56:15;0.80;99.90
20208;DHT22;10263;48.716;8.760;2023-03-01T08:58:44;0.80;99.90
20208;DHT22;10263;48.716;8.760;2023-03-01T09:01:12;0.90;99.90
20208;DHT22;10263;48.716;8.760;2023-03-01T09:03:39;1.00;99.90
20208;DHT22;10263;48.716;8.760;2023-03-01T09:06:07;1.10;99.90
20208;DHT22;10263;48.716;8.760;2023-03-01T09:08:35;1.20;99.90
20208;DHT22;10263;48.716;8.760;2023-03-01T09:11:02;1.30;99.90
20208;DHT22;10263;48.716;8.760;2023-03-01T09:13:30;1.40;99.90
20208;DHT22;10263;48.716;8.760;2023-03-01T09:15:57;1.50;99.90
20208;DHT22;10263;48.716;8.760;2023-03-01T09:18:24;1.60;99.90
20208;DHT22;10263;48.716;8.760;2023-03-01T09:20:51;1.60;99.90
20208;DHT22;10263;48.716;8.760;2023-03-01T09:23:20;1.80;99.90
20208;DHT22;10263;48.716;8.760;2023-03-01T09:25:47;1.90;99.90
20208;DHT22;10263;48.716;8.760;2023-03-01T09:28:14;2.10;99.90
20208;DHT22;10263;48.716;8.760;2023-03-01T09:30:42;2.10;99.90
20208;DHT22;10263;48.716;8.760;2023-03-01T09:33:08;2.30;99.90
20208;DHT22;10263;48.716;8.760;2023-03-01T09:35:40;2.50;99.90
20208;DHT22;10263;48.716;8.760;2023-03-01T09:38:11;3.00;99.90
20208;DHT22;10263;48.716;8.760;2023-03-01T09:40:42;3.00;99.90
20208;DHT22;10263;48.716;8.760;2023-03-01T09:43:18;3.50;99.90
20208;DHT22;10263;48.716;8.760;2023-03-01T09:45:50;3.90;99.90
20208;DHT22;10263;48.716;8.760;2023-03-01T09:48:21;4.90;99.90
20208;DHT22;10263;48.716;8.760;2023-03-01T09:50:50;4.90;99.90
20208;DHT22;10263;48.716;8.760;2023-03-01T09:53:19;5.30;99.90
20208;DHT22;10263;48.716;8.760;2023-03-01T09:55:52;5.60;99.90
20208;DHT22;10263;48.716;8.760;2023-03-01T09:58:31;6.30;99.90
20208;DHT22;10263;48.716;8.760;2023-03-01T10:01:11;6.40;99.90
20208;DHT22;10263;48.716;8.760;2023-03-01T10:03:44;6.80;99.90
20208;DHT22;10263;48.716;8.760;2023-03-01T10:06:15;7.10;99.90
20208;DHT22;10263;48.716;8.760;2023-03-01T10:08:54;7.30;99.90
20208;DHT22;10263;48.716;8.760;2023-03-01T10:11:25;7.40;99.90
20208;DHT22;10263;48.716;8.760;2023-03-01T10:13:58;7.50;99.90
20208;DHT22;10263;48.716;8.760;2023-03-01T10:16:32;7.80;99.90
20208;DHT22;10263;48.716;8.760;2023-03-01T10:19:02;8.00;98.90
20208;DHT22;10263;48.716;8.760;2023-03-01T10:21:30;8.10;98.20
20208;DHT22;10263;48.716;8.760;2023-03-01T10:24:05;8.30;97.30
20208;DHT22;10263;48.716;8.760;2023-03-01T10:26:44;8.50;96.60
20208;DHT22;10263;48.716;8.760;2023-03-01T10:29:14;8.80;97.00
20208;DHT22;10263;48.716;8.760;2023-03-01T10:31:44;9.10;96.50
20208;DHT22;10263;48.716;8.760;2023-03-01T10:34:13;9.20;94.70
20208;DHT22;10263;48.716;8.760;2023-03-01T10:36:42;9.40;94.00
20208;DHT22;10263;48.716;8.760;2023-03-01T10:39:17;9.30;92.60
20208;DHT22;10263;48.716;8.760;2023-03-01T10:42:03;9.40;92.80
20208;DHT22;10263;48.716;8.760;2023-03-01T10:44:41;9.60;93.70
20208;DHT22;10263;48.716;8.760;2023-03-01T10:47:19;9.80;93.00
20208;DHT22;10263;48.716;8.760;2023-03-01T10:49:58;10.10;90.70
20208;DHT22;10263;48.716;8.760;2023-03-01T10:52:28;10.20;90.00
20208;DHT22;10263;48.716;8.760;2023-03-01T10:54:57;10.40;90.00
20208;DHT22;10263;48.716;8.760;2023-03-01T10:57:37;10.50;89.10
20208;DHT22;10263;48.716;8.760;2023-03-01T11:00:19;10.70;88.10
20208;DHT22;10263;48.716;8.760;2023-03-01T11:03:01;10.80;88.60
20208;DHT22;10263;48.716;8.760;2023-03-01T11:05:28;10.90;86.20
20208;DHT22;10263;48.716;8.760;2023-03-01T11:07:57;11.00;86.70
20208;DHT22;10263;48.716;8.760;2023-03-01T11:10:26;11.10;84.90
20208;DHT22;10263;48.716;8.760;2023-03-01T11:12:53;11.30;84.60
20208;DHT22;10263;48.716;8.760;2023-03-01T11:15:31;11.40;83.00
20208;DHT22;10263;48.716;8.760;2023-03-01T11:17:59;11.40;83.20
20208;DHT22;10263;48.716;8.760;2023-03-01T11:20:30;11.50;82.70
20208;DHT22;10263;48.716;8.760;2023-03-01T11:23:01;11.40;81.00
20208;DHT22;10263;48.716;8.760;2023-03-01T11:25:32;11.40;79.80
20208;DHT22;10263;48.716;8.760;2023-03-01T11:28:02;11.50;81.10
20208;DHT22;10263;48.716;8.760;2023-03-01T11:30:34;11.40;81.20
20208;DHT22;10263;48.716;8.760;2023-03-01T11:33:13;11.50;79.50
20208;DHT22;10263;48.716;8.760;2023-03-01T11:35:45;11.50;80.10
20208;DHT22;10263;48.716;8.760;2023-03-01T11:38:21;11.70;78.10
20208;DHT22;10263;48.716;8.760;2023-03-01T11:40:53;11.70;78.60
20208;DHT22;10263;48.716;8.760;2023-03-01T11:43:30;11.70;78.70
20208;DHT22;10263;48.716;8.760;2023-03-01T11:46:21;11.90;78.80
20208;DHT22;10263;48.716;8.760;2023-03-01T11:48:59;11.90;77.50
20208;DHT22;10263;48.716;8.760;2023-03-01T11:51:38;12.00;77.10
20208;DHT22;10263;48.716;8.760;2023-03-01T11:54:14;12.20;75.80
20208;DHT22;10263;48.716;8.760;2023-03-01T11:56:47;12.40;73.70
20208;DHT22;10263;48.716;8.760;2023-03-01T11:59:31;12.40;74.30
20208;DHT22;10263;48.716;8.760;2023-03-01T12:02:27;12.40;73.30
20208;DHT22;10263;48.716;8.760;2023-03-01T12:05:20;12.30;74.00
20208;DHT22;10263;48.716;8.760;2023-03-01T12:07:54;12.30;72.60
20208;DHT22;10263;48.716;8.760;2023-03-01T12:10:26;12.40;72.30
20208;DHT22;10263;48.716;8.760;2023-03-01T12:13:22;12.40;72.70
20208;DHT22;10263;48.716;8.760;2023-03-01T12:16:18;12.30;71.30
20208;DHT22;10263;48.716;8.760;2023-03-01T12:19:21;12.60;70.70
20208;DHT22;10263;48.716;8.760;2023-03-01T12:22:04;12.70;71.50
20208;DHT22;10263;48.716;8.760;2023-03-01T12:24:49;12.60;70.40
20208;DHT22;10263;48.716;8.760;2023-03-01T12:27:37;12.40;70.30
20208;DHT22;10263;48.716;8.760;2023-03-01T12:30:18;12.30;72.40
20208;DHT22;10263;48.716;8.760;2023-03-01T12:33:00;12.20;70.20
20208;DHT22;10263;48.716;8.760;2023-03-01T12:35:43;12.30;71.90
20208;DHT22;10263;48.716;8.760;2023-03-01T12:38:37;12.60;71.00
20208;DHT22;10263;48.716;8.760;2023-03-01T12:41:27;12.60;70.40
20208;DHT22;10263;48.716;8.760;2023-03-01T12:44:04;12.50;70.30
20208;DHT22;10263;48.716;8.760;2023-03-01T12:46:42;12.50;69.30
20208;DHT22;10263;48.716;8.760;2023-03-01T12:49:15;12.30;70.10
20208;DHT22;10263;48.716;8.760;2023-03-01T12:51:46;12.40;69.50
20208;DHT22;10263;48.716;8.760;2023-03-01T12:54:24;12.50;69.90
20208;DHT22;10263;48.716;8.760;2023-03-01T12:56:53;12.70;68.60
20208;DHT22;10263;48.716;8.760;2023-03-01T12:59:25;12.70;70.50
20208;DHT22;10263;48.716;8.760;2023-03-01T13:02:02;12.80;68.40
20208;DHT22;10263;48.716;8.760;2023-03-01T13:04:37;12.90;68.90
20208;DHT22;10263;48.716;8.760;2023-03-01T13:07:23;12.80;69.40
20208;DHT22;10263;48.716;8.760;2023-03-01T13:09:59;13.20;68.90
20208;DHT22;10263;48.716;8.760;2023-03-01T13:12:51;13.30;66.80
20208;DHT22;10263;48.716;8.760;2023-03-01T13:15:25;13.30;67.10
20208;DHT22;10263;48.716;8.760;2023-03-01T13:17:53;13.50;66.70
20208;DHT22;10263;48.716;8.760;2023-03-01T13:20:23;13.80;66.50
20208;DHT22;10263;48.716;8.760;2023-03-01T13:23:03;13.90;67.50
20208;DHT22;10263;48.716;8.760;2023-03-01T13:25:31;14.00;67.30
20208;DHT22;10263;48.716;8.760;2023-03-01T13:31:04;14.00;65.80
20208;DHT22;10263;48.716;8.760;2023-03-01T13:33:43;14.00;64.80
20208;DHT22;10263;48.716;8.760;2023-03-01T13:36:13;13.70;64.30
20208;DHT22;10263;48.716;8.760;2023-03-01T13:39:02;10.30;59.00
20208;DHT22;10263;48.716;8.760;2023-03-01T13:41:50;14.10;63.50
20208;DHT22;10263;48.716;8.760;2023-03-01T13:44:23;14.20;64.00
20208;DHT22;10263;48.716;8.760;2023-03-01T13:46:52;14.20;62.40
20208;DHT22;10263;48.716;8.760;2023-03-01T13:49:21;14.30;63.30
20208;DHT22;10263;48.716;8.760;2023-03-01T13:51:50;14.60;62.20
20208;DHT22;10263;48.716;8.760;2023-03-01T13:54:25;14.70;62.00
20208;DHT22;10263;48.716;8.760;2023-03-01T13:56:53;15.00;60.50
20208;DHT22;10263;48.716;8.760;2023-03-01T13:59:21;15.00;60.50
20208;DHT22;10263;48.716;8.760;2023-03-01T14:01:53;15.00;60.20
20208;DHT22;10263;48.716;8.760;2023-03-01T14:04:22;15.40;60.20
20208;DHT22;10263;48.716;8.760;2023-03-01T14:06:49;15.70;58.90
20208;DHT22;10263;48.716;8.760;2023-03-01T14:09:20;15.60;58.40
20208;DHT22;10263;48.716;8.760;2023-03-01T14:12:22;15.80;58.50
20208;DHT22;10263;48.716;8.760;2023-03-01T14:14:57;16.10;58.10
20208;DHT22;10263;48.716;8.760;2023-03-01T14:17:49;16.50;57.80
20208;DHT22;10263;48.716;8.760;2023-03-01T14:20:21;17.10;55.80
20208;DHT22;10263;48.716;8.760;2023-03-01T14:22:50;17.10;55.90
20208;DHT22;10263;48.716;8.760;2023-03-01T14:25:34;17.00;55.50
20208;DHT22;10263;48.716;8.760;2023-03-01T14:28:10;17.20;56.30
20208;DHT22;10263;48.716;8.760;2023-03-01T14:30:42;17.50;54.90
20208;DHT22;10263;48.716;8.760;2023-03-01T14:33:20;17.40;55.10
20208;DHT22;10263;48.716;8.760;2023-03-01T14:35:58;17.30;54.80
20208;DHT22;10263;48.716;8.760;2023-03-01T14:38:32;17.30;54.80
20208;DHT22;10263;48.716;8.760;2023-03-01T14:41:06;17.20;54.50
20208;DHT22;10263;48.716;8.760;2023-03-01T14:43:35;17.00;54.50
20208;DHT22;10263;48.716;8.760;2023-03-01T14:46:03;17.00;54.40
20208;DHT22;10263;48.716;8.760;2023-03-01T14:48:31;16.70;54.70
20208;DHT22;10263;48.716;8.760;2023-03-01T14:50:58;16.80;55.20
20208;DHT22;10263;48.716;8.760;2023-03-01T14:53:27;16.90;54.70
20208;DHT22;10263;48.716;8.760;2023-03-01T14:55:56;16.90;54.20
20208;DHT22;10263;48.716;8.760;2023-03-01T14:58:31;16.60;54.20
20208;DHT22;10263;48.716;8.760;2023-03-01T15:00:59;15.90;55.10
20208;DHT22;10263;48.716;8.760;2023-03-01T15:03:32;15.90;55.00
20208;DHT22;10263;48.716;8.760;2023-03-01T15:06:01;15.80;55.80
20208;DHT22;10263;48.716;8.760;2023-03-01T15:08:29;15.90;55.80
20208;DHT22;10263;48.716;8.760;2023-03-01T15:11:04;16.00;55.40
20208;DHT22;10263;48.716;8.760;2023-03-01T15:13:34;15.70;55.30
20208;DHT22;10263;48.716;8.760;2023-03-01T15:16:06;15.20;56.00
20208;DHT22;10263;48.716;8.760;2023-03-01T15:18:35;14.80;56.90
20208;DHT22;10263;48.716;8.760;2023-03-01T15:21:08;14.70;57.20
20208;DHT22;10263;48.716;8.760;2023-03-01T15:23:37;14.20;57.70
20208;DHT22;10263;48.716;8.760;2023-03-01T15:26:05;13.80;58.30
20208;DHT22;10263;48.716;8.760;2023-03-01T15:28:39;13.30;59.00
20208;DHT22;10263;48.716;8.760;2023-03-01T15:31:18;12.80;59.80
20208;DHT22;10263;48.716;8.760;2023-03-01T15:33:46;12.20;61.30
20208;DHT22;10263;48.716;8.760;2023-03-01T15:36:35;11.70;62.10
20208;DHT22;10263;48.716;8.760;2023-03-01T15:39:04;11.10;63.90
20208;DHT22;10263;48.716;8.760;2023-03-01T15:41:36;10.80;66.00
20208;DHT22;10263;48.716;8.760;2023-03-01T15:44:16;10.60;65.80
20208;DHT22;10263;48.716;8.760;2023-03-01T15:46:46;10.20;68.30
20208;DHT22;10263;48.716;8.760;2023-03-01T15:49:25;10.00;67.90
20208;DHT22;10263;48.716;8.760;2023-03-01T15:51:54;9.80;69.60
20208;DHT22;10263;48.716;8.760;2023-03-01T15:54:23;9.60;70.50
20208;DHT22;10263;48.716;8.760;2023-03-01T15:56:51;9.30;71.20
20208;DHT22;10263;48.716;8.760;2023-03-01T15:59:20;9.10;71.80
20208;DHT22;10263;48.716;8.760;2023-03-01T16:01:48;8.90;73.00
20208;DHT22;10263;48.716;8.760;2023-03-01T16:04:17;8.80;73.40
20208;DHT22;10263;48.716;8.760;2023-03-01T16:06:49;8.60;74.00
20208;DHT22;10263;48.716;8.760;2023-03-01T16:09:23;8.70;74.00
20208;DHT22;10263;48.716;8.760;2023-03-01T16:11:52;8.40;74.50
20208;DHT22;10263;48.716;8.760;2023-03-01T16:14:21;8.10;75.90
20208;DHT22;10263;48.716;8.760;2023-03-01T16:16:48;7.90;76.30
20208;DHT22;10263;48.716;8.760;2023-03-01T16:19:15;7.90;77.10
20208;DHT22;10263;48.716;8.760;2023-03-01T16:21:43;7.70;77.30
20208;DHT22;10263;48.716;8.760;2023-03-01T16:24:12;7.50;78.20
20208;DHT22;10263;48.716;8.760;2023-03-01T16:26:39;7.20;78.30
20208;DHT22;10263;48.716;8.760;2023-03-01T16:29:05;7.10;79.80
20208;DHT22;10263;48.716;8.760;2023-03-01T16:31:34;7.00;79.90
20208;DHT22;10263;48.716;8.760;2023-03-01T16:34:00;7.00;80.50
20208;DHT22;10263;48.716;8.760;2023-03-01T16:36:27;6.80;80.70
20208;DHT22;10263;48.716;8.760;2023-03-01T16:38:55;6.80;80.70
20208;DHT22;10263;48.716;8.760;2023-03-01T16:41:24;6.60;81.60
20208;DHT22;10263;48.716;8.760;2023-03-01T16:43:51;6.50;83.00
20208;DHT22;10263;48.716;8.760;2023-03-01T16:46:20;6.40;82.20
20208;DHT22;10263;48.716;8.760;2023-03-01T16:48:49;6.30;82.70
20208;DHT22;10263;48.716;8.760;2023-03-01T16:51:16;6.30;83.10
20208;DHT22;10263;48.716;8.760;2023-03-01T16:53:43;6.20;83.10
20208;DHT22;10263;48.716;8.760;2023-03-01T16:56:12;6.00;83.60
20208;DHT22;10263;48.716;8.760;2023-03-01T16:58:39;5.90;84.30
20208;DHT22;10263;48.716;8.760;2023-03-01T17:01:08;5.80;84.90
20208;DHT22;10263;48.716;8.760;2023-03-01T17:03:37;5.70;85.40
20208;DHT22;10263;48.716;8.760;2023-03-01T17:06:07;5.70;85.50